Racket, Missouri
Current Conditions -  °F | °C
As of 3:55 PM on Thursday 18 Dec 2014 (Local Time) from KGLY Reporting Station
Haze Haze  
Wind Chill: 36°   Ceiling: 500
Heat Index: 36°   Visibility: 6mi
Dew Point: 34°   Wind: 0mph
Humidity: 93%   Direction: NA
Pressure: 30.2"   Gusts: NA
Location:  38.3166°N, 93.2711°W
Report Text: KGLY 182155Z AUTO 00000KT 6SM BR OVC005 02/01 A3020 RMK AO2
Loading
Personal Weather Stations






























Interactive Weather Map New forecast layout! Learn more

10-Day Weather Forecast

Advertisements
Track Severe Weather on mobile